DWI2363 KEWR-MDSD
Flight info
| Callsign | DWI2363 |
|---|---|
| Flight time | N/A |
| Altitude | 36000 |
| Route | ELVAE DCT NECCK DCT WHITE Q409 CRPLR DCT ECG/N0457F350 AR8 OXANA/M079F350 L452 WILYY/M079F370 L452 LNHOM/N0460F370 L452 SLUKA/N0458F360 DCT POKEG UT17 KOBET DCT KERSO |
| Aircraft | B38M/M-SDE1FGHILORVWXY/HB1 |
Departure
| Time | N/A |
|---|---|
| Airport | Newark Liberty International Airport (KEWR) |
Arrival
| Time | 2026-05-08 04:37 |
|---|---|
| Airport | Las Américas International Airport (MDSD) |
| Time | Latitude | Longitude | Altitude | Speed | Heading |
|---|---|---|---|---|---|
| 2026-05-08 02:24 | 33.29020 | -73.41226 | 35926 ft | 473 kts | 175° |
| 2026-05-08 02:24 | 33.25841 | -73.40211 | 35930 ft | 473 kts | 175° |
| 2026-05-08 02:25 | 33.19482 | -73.38185 | 35930 ft | 473 kts | 175° |
| 2026-05-08 02:25 | 33.13114 | -73.36158 | 35932 ft | 473 kts | 175° |
| 2026-05-08 02:26 | 33.06783 | -73.34146 | 35934 ft | 473 kts | 175° |
| 2026-05-08 02:26 | 33.00414 | -73.32125 | 35940 ft | 474 kts | 175° |
| 2026-05-08 02:27 | 32.94034 | -73.30103 | 35941 ft | 474 kts | 174° |
| 2026-05-08 02:27 | 32.87646 | -73.28082 | 35944 ft | 475 kts | 174° |
| 2026-05-08 02:28 | 32.81258 | -73.26065 | 35948 ft | 475 kts | 174° |
| 2026-05-08 02:28 | 32.74881 | -73.24053 | 35953 ft | 475 kts | 174° |
| 2026-05-08 02:29 | 32.68505 | -73.22045 | 35954 ft | 476 kts | 174° |
| 2026-05-08 02:29 | 32.62094 | -73.20029 | 35958 ft | 477 kts | 174° |
| 2026-05-08 02:30 | 32.55672 | -73.18012 | 35958 ft | 477 kts | 174° |
| 2026-05-08 02:30 | 32.49254 | -73.16000 | 35962 ft | 478 kts | 174° |
| 2026-05-08 02:31 | 32.42826 | -73.13987 | 35965 ft | 478 kts | 174° |
| 2026-05-08 02:31 | 32.36379 | -73.11971 | 35973 ft | 479 kts | 173° |
| 2026-05-08 02:32 | 32.29961 | -73.09968 | 35975 ft | 480 kts | 173° |
| 2026-05-08 02:32 | 32.23482 | -73.07949 | 35974 ft | 480 kts | 173° |
| 2026-05-08 02:33 | 32.17012 | -73.05934 | 35977 ft | 481 kts | 173° |
| 2026-05-08 02:33 | 32.10528 | -73.03919 | 35981 ft | 481 kts | 173° |
| 2026-05-08 02:34 | 32.04073 | -73.01916 | 35982 ft | 482 kts | 173° |
| 2026-05-08 02:34 | 31.97589 | -72.99907 | 35990 ft | 483 kts | 173° |
| 2026-05-08 02:35 | 31.91083 | -72.97894 | 35993 ft | 483 kts | 173° |
| 2026-05-08 02:35 | 31.84562 | -72.95879 | 35998 ft | 484 kts | 173° |
| 2026-05-08 02:36 | 31.78071 | -72.93876 | 35995 ft | 484 kts | 173° |
| 2026-05-08 02:36 | 31.71537 | -72.91864 | 36005 ft | 484 kts | 173° |
| 2026-05-08 02:37 | 31.65019 | -72.89859 | 36002 ft | 484 kts | 172° |
| 2026-05-08 02:37 | 31.58539 | -72.87868 | 36001 ft | 484 kts | 172° |
| 2026-05-08 02:38 | 31.52011 | -72.85866 | 35999 ft | 485 kts | 172° |
| 2026-05-08 02:38 | 31.45478 | -72.83865 | 36007 ft | 485 kts | 172° |
| 2026-05-08 02:39 | 31.38933 | -72.81864 | 36014 ft | 486 kts | 172° |
| 2026-05-08 02:39 | 31.32395 | -72.79867 | 36012 ft | 486 kts | 172° |
| 2026-05-08 02:40 | 31.25885 | -72.77881 | 36018 ft | 486 kts | 172° |
| 2026-05-08 02:40 | 31.19293 | -72.75874 | 36018 ft | 487 kts | 172° |
| 2026-05-08 02:41 | 31.12729 | -72.73878 | 36022 ft | 487 kts | 172° |
| 2026-05-08 02:41 | 31.06211 | -72.71899 | 36021 ft | 488 kts | 172° |
| 2026-05-08 02:42 | 30.99632 | -72.69904 | 36023 ft | 489 kts | 172° |
| 2026-05-08 02:42 | 30.93035 | -72.67906 | 36028 ft | 489 kts | 172° |
| 2026-05-08 02:43 | 30.86455 | -72.65917 | 36027 ft | 489 kts | 172° |
| 2026-05-08 02:43 | 30.79900 | -72.63938 | 36024 ft | 489 kts | 172° |
| 2026-05-08 02:44 | 30.73266 | -72.61937 | 36034 ft | 489 kts | 172° |
| 2026-05-08 02:44 | 30.66713 | -72.59964 | 36035 ft | 489 kts | 172° |
| 2026-05-08 02:45 | 30.60120 | -72.57981 | 36037 ft | 489 kts | 171° |
| 2026-05-08 02:45 | 30.53514 | -72.55999 | 36034 ft | 489 kts | 171° |
| 2026-05-08 02:46 | 30.46960 | -72.54034 | 36043 ft | 489 kts | 171° |
| 2026-05-08 02:46 | 30.40360 | -72.52058 | 36041 ft | 489 kts | 171° |
| 2026-05-08 02:47 | 30.33768 | -72.50088 | 36041 ft | 489 kts | 171° |
| 2026-05-08 02:47 | 30.27157 | -72.48114 | 36041 ft | 489 kts | 171° |
| 2026-05-08 02:48 | 30.20565 | -72.46149 | 36045 ft | 489 kts | 171° |
| 2026-05-08 02:48 | 30.13971 | -72.44202 | 36046 ft | 489 kts | 171° |
| 2026-05-08 02:49 | 30.07418 | -72.42285 | 36049 ft | 489 kts | 171° |
| 2026-05-08 02:49 | 30.00814 | -72.40355 | 36054 ft | 489 kts | 171° |
| 2026-05-08 02:50 | 29.94216 | -72.38429 | 36053 ft | 489 kts | 171° |
| 2026-05-08 02:50 | 29.87623 | -72.36507 | 36052 ft | 488 kts | 171° |
| 2026-05-08 02:51 | 29.81075 | -72.34602 | 36059 ft | 488 kts | 171° |
| 2026-05-08 02:51 | 29.74478 | -72.32684 | 36059 ft | 489 kts | 171° |
| 2026-05-08 02:52 | 29.67883 | -72.30769 | 36056 ft | 488 kts | 171° |
| 2026-05-08 02:52 | 29.61289 | -72.28858 | 36059 ft | 488 kts | 171° |
| 2026-05-08 02:53 | 29.54699 | -72.26950 | 36056 ft | 488 kts | 171° |
| 2026-05-08 02:53 | 29.48103 | -72.25043 | 36060 ft | 488 kts | 171° |
| 2026-05-08 02:54 | 29.41515 | -72.23141 | 36061 ft | 488 kts | 171° |
| 2026-05-08 02:54 | 29.34968 | -72.21253 | 36060 ft | 488 kts | 171° |
| 2026-05-08 02:55 | 29.25100 | -72.18412 | 36061 ft | 487 kts | 171° |
| 2026-05-08 02:56 | 29.18516 | -72.16520 | 36064 ft | 487 kts | 171° |
| 2026-05-08 02:56 | 29.11931 | -72.14630 | 36065 ft | 487 kts | 171° |
| 2026-05-08 02:57 | 29.05357 | -72.12746 | 36064 ft | 487 kts | 171° |
| 2026-05-08 02:57 | 28.98786 | -72.10865 | 36066 ft | 488 kts | 171° |
| 2026-05-08 02:58 | 28.92197 | -72.08981 | 36067 ft | 488 kts | 171° |
| 2026-05-08 02:58 | 28.85602 | -72.07098 | 36068 ft | 488 kts | 171° |
| 2026-05-08 02:59 | 28.79050 | -72.05230 | 36065 ft | 488 kts | 171° |
| 2026-05-08 02:59 | 28.72455 | -72.03352 | 36069 ft | 489 kts | 170° |
| 2026-05-08 03:00 | 28.65850 | -72.01474 | 36069 ft | 489 kts | 170° |
| 2026-05-08 03:00 | 28.59279 | -71.99607 | 36070 ft | 489 kts | 170° |
| 2026-05-08 03:01 | 28.52662 | -71.97731 | 36072 ft | 490 kts | 170° |
| 2026-05-08 03:01 | 28.46044 | -71.95855 | 36073 ft | 491 kts | 170° |
| 2026-05-08 03:02 | 28.39408 | -71.93977 | 36071 ft | 491 kts | 170° |
| 2026-05-08 03:02 | 28.32773 | -71.92103 | 36076 ft | 491 kts | 170° |
| 2026-05-08 03:03 | 28.26187 | -71.90245 | 36086 ft | 490 kts | 170° |
| 2026-05-08 03:03 | 28.19515 | -71.88366 | 36080 ft | 490 kts | 170° |
| 2026-05-08 03:04 | 28.12941 | -71.86516 | 36080 ft | 490 kts | 170° |
| 2026-05-08 03:04 | 28.06324 | -71.84656 | 36079 ft | 490 kts | 170° |
| 2026-05-08 03:05 | 27.99707 | -71.82799 | 36082 ft | 490 kts | 170° |
| 2026-05-08 03:05 | 27.93083 | -71.80942 | 36085 ft | 490 kts | 170° |
| 2026-05-08 03:06 | 27.87588 | -71.79403 | 36085 ft | 489 kts | 170° |
| 2026-05-08 03:06 | 27.80972 | -71.77554 | 36087 ft | 490 kts | 170° |
| 2026-05-08 03:07 | 27.74346 | -71.75702 | 36087 ft | 490 kts | 170° |
| 2026-05-08 03:07 | 27.67731 | -71.73857 | 36084 ft | 490 kts | 170° |
| 2026-05-08 03:08 | 27.61148 | -71.72023 | 36088 ft | 490 kts | 169° |
| 2026-05-08 03:08 | 27.54525 | -71.70180 | 36090 ft | 490 kts | 169° |
| 2026-05-08 03:09 | 27.47907 | -71.68340 | 36088 ft | 490 kts | 169° |
| 2026-05-08 03:09 | 27.41282 | -71.66502 | 36097 ft | 490 kts | 169° |
| 2026-05-08 03:10 | 27.34675 | -71.64670 | 36099 ft | 490 kts | 169° |
| 2026-05-08 03:10 | 27.28084 | -71.62845 | 36097 ft | 490 kts | 169° |
| 2026-05-08 03:11 | 27.21459 | -71.61012 | 36089 ft | 490 kts | 169° |
| 2026-05-08 03:11 | 27.14826 | -71.59180 | 36089 ft | 490 kts | 169° |
| 2026-05-08 03:12 | 27.08243 | -71.57364 | 36096 ft | 490 kts | 169° |
| 2026-05-08 03:12 | 27.01615 | -71.55538 | 36102 ft | 490 kts | 169° |
| 2026-05-08 03:13 | 26.94998 | -71.53717 | 36094 ft | 490 kts | 169° |
| 2026-05-08 03:13 | 26.88387 | -71.51899 | 36102 ft | 490 kts | 169° |
| 2026-05-08 03:14 | 26.81767 | -71.50082 | 36099 ft | 490 kts | 169° |
| 2026-05-08 03:14 | 26.75142 | -71.48265 | 36102 ft | 489 kts | 169° |
| 2026-05-08 03:15 | 26.68520 | -71.46451 | 36104 ft | 489 kts | 168° |
| 2026-05-08 03:15 | 26.61905 | -71.44641 | 36098 ft | 489 kts | 168° |
| 2026-05-08 03:16 | 26.55329 | -71.42845 | 36106 ft | 489 kts | 168° |
| 2026-05-08 03:16 | 26.48714 | -71.41039 | 36103 ft | 489 kts | 168° |
| 2026-05-08 03:17 | 26.42089 | -71.39233 | 36106 ft | 489 kts | 168° |
| 2026-05-08 03:17 | 26.35479 | -71.37434 | 36106 ft | 489 kts | 168° |
| 2026-05-08 03:18 | 26.28875 | -71.35637 | 36106 ft | 489 kts | 168° |
| 2026-05-08 03:18 | 26.22295 | -71.33850 | 36104 ft | 489 kts | 168° |
| 2026-05-08 03:19 | 26.15683 | -71.32056 | 36113 ft | 489 kts | 168° |
| 2026-05-08 03:19 | 26.09071 | -71.30264 | 36109 ft | 488 kts | 168° |
| 2026-05-08 03:20 | 26.02475 | -71.28479 | 36109 ft | 488 kts | 168° |
| 2026-05-08 03:20 | 25.95866 | -71.26692 | 36109 ft | 488 kts | 168° |
| 2026-05-08 03:21 | 25.89275 | -71.24912 | 36109 ft | 488 kts | 168° |
| 2026-05-08 03:21 | 25.82670 | -71.23130 | 36107 ft | 488 kts | 168° |
| 2026-05-08 03:22 | 25.76121 | -71.21365 | 36107 ft | 487 kts | 168° |
| 2026-05-08 03:22 | 25.69531 | -71.19592 | 36111 ft | 487 kts | 168° |
| 2026-05-08 03:23 | 25.62935 | -71.17819 | 36111 ft | 487 kts | 168° |
| 2026-05-08 03:23 | 25.56336 | -71.16047 | 36108 ft | 487 kts | 168° |
| 2026-05-08 03:24 | 25.49747 | -71.14280 | 36107 ft | 487 kts | 168° |
| 2026-05-08 03:24 | 25.43147 | -71.12511 | 36110 ft | 487 kts | 168° |
| 2026-05-08 03:25 | 25.36605 | -71.10760 | 36109 ft | 487 kts | 167° |
| 2026-05-08 03:25 | 25.30019 | -71.09000 | 36108 ft | 487 kts | 167° |
| 2026-05-08 03:26 | 25.23424 | -71.07238 | 36107 ft | 487 kts | 167° |
| 2026-05-08 03:26 | 25.16833 | -71.05480 | 36109 ft | 487 kts | 167° |
| 2026-05-08 03:27 | 25.10259 | -71.03728 | 36111 ft | 487 kts | 167° |
| 2026-05-08 03:27 | 25.03672 | -71.01974 | 36106 ft | 487 kts | 167° |
| 2026-05-08 03:28 | 24.97013 | -71.00717 | 36113 ft | 485 kts | 176° |
| 2026-05-08 03:28 | 24.90288 | -71.00033 | 36109 ft | 486 kts | 176° |
| 2026-05-08 03:29 | 24.83539 | -70.99360 | 36108 ft | 486 kts | 176° |
| 2026-05-08 03:29 | 24.76802 | -70.98690 | 36107 ft | 486 kts | 176° |
| 2026-05-08 03:30 | 24.66727 | -70.97689 | 36106 ft | 486 kts | 176° |
| 2026-05-08 03:31 | 24.53226 | -70.96351 | 36109 ft | 486 kts | 176° |
| 2026-05-08 03:32 | 24.43138 | -70.95353 | 36108 ft | 487 kts | 176° |
| 2026-05-08 03:32 | 24.36394 | -70.94687 | 36110 ft | 487 kts | 176° |
| 2026-05-08 03:33 | 24.29646 | -70.94021 | 36109 ft | 487 kts | 176° |
| 2026-05-08 03:33 | 24.22892 | -70.93355 | 36106 ft | 487 kts | 176° |
| 2026-05-08 03:34 | 24.16120 | -70.92688 | 36104 ft | 487 kts | 175° |
| 2026-05-08 03:34 | 24.09424 | -70.91596 | 36111 ft | 488 kts | 169° |
| 2026-05-08 03:35 | 24.02803 | -70.90115 | 36109 ft | 488 kts | 169° |
| 2026-05-08 03:35 | 23.96145 | -70.88612 | 36110 ft | 488 kts | 169° |
| 2026-05-08 03:36 | 23.89484 | -70.87109 | 36106 ft | 489 kts | 169° |
| 2026-05-08 03:36 | 23.82820 | -70.85607 | 36103 ft | 489 kts | 169° |
| 2026-05-08 03:37 | 23.76150 | -70.84105 | 36104 ft | 489 kts | 169° |
| 2026-05-08 03:37 | 23.69490 | -70.82607 | 36106 ft | 489 kts | 169° |
| 2026-05-08 03:38 | 23.62829 | -70.81111 | 36111 ft | 489 kts | 169° |
| 2026-05-08 03:38 | 23.56150 | -70.79611 | 36107 ft | 489 kts | 169° |
| 2026-05-08 03:39 | 23.49520 | -70.78125 | 36106 ft | 489 kts | 169° |
| 2026-05-08 03:39 | 23.42842 | -70.76629 | 36106 ft | 489 kts | 168° |
| 2026-05-08 03:40 | 23.36164 | -70.75135 | 36105 ft | 489 kts | 169° |
| 2026-05-08 03:40 | 23.29491 | -70.73643 | 36108 ft | 490 kts | 168° |
| 2026-05-08 03:41 | 23.22806 | -70.72150 | 36102 ft | 490 kts | 169° |
| 2026-05-08 03:41 | 23.16114 | -70.70657 | 36105 ft | 490 kts | 168° |
| 2026-05-08 03:42 | 23.09441 | -70.69170 | 36104 ft | 490 kts | 168° |
| 2026-05-08 03:42 | 23.02799 | -70.67692 | 36103 ft | 490 kts | 168° |
| 2026-05-08 03:43 | 22.96111 | -70.66204 | 36098 ft | 491 kts | 168° |
| 2026-05-08 03:43 | 22.89412 | -70.64716 | 36101 ft | 491 kts | 168° |
| 2026-05-08 03:44 | 22.82709 | -70.63228 | 36099 ft | 491 kts | 168° |
| 2026-05-08 03:44 | 22.76061 | -70.61754 | 36099 ft | 491 kts | 168° |
| 2026-05-08 03:45 | 22.69349 | -70.60267 | 36095 ft | 491 kts | 168° |
| 2026-05-08 03:45 | 22.62646 | -70.58784 | 36097 ft | 491 kts | 168° |
| 2026-05-08 03:46 | 22.55945 | -70.57303 | 36099 ft | 491 kts | 168° |
| 2026-05-08 03:46 | 22.49248 | -70.55823 | 36097 ft | 491 kts | 168° |
| 2026-05-08 03:47 | 22.42571 | -70.54350 | 36096 ft | 491 kts | 168° |
| 2026-05-08 03:47 | 22.35869 | -70.52873 | 36093 ft | 491 kts | 168° |
| 2026-05-08 03:48 | 22.29163 | -70.51396 | 36093 ft | 491 kts | 168° |
| 2026-05-08 03:48 | 22.22469 | -70.49924 | 36093 ft | 491 kts | 168° |
| 2026-05-08 03:49 | 22.15806 | -70.48460 | 36091 ft | 491 kts | 168° |
| 2026-05-08 03:49 | 22.09112 | -70.46989 | 36092 ft | 491 kts | 168° |
| 2026-05-08 03:50 | 22.02419 | -70.45522 | 36092 ft | 491 kts | 168° |
| 2026-05-08 03:50 | 21.95726 | -70.44055 | 36091 ft | 490 kts | 168° |
| 2026-05-08 03:51 | 21.89041 | -70.42592 | 36093 ft | 490 kts | 168° |
| 2026-05-08 03:51 | 21.82382 | -70.41136 | 36092 ft | 490 kts | 168° |
| 2026-05-08 03:52 | 21.75693 | -70.39673 | 36087 ft | 490 kts | 168° |
| 2026-05-08 03:52 | 21.68994 | -70.38211 | 36088 ft | 490 kts | 168° |
| 2026-05-08 03:53 | 21.62310 | -70.36754 | 36088 ft | 490 kts | 168° |
| 2026-05-08 03:53 | 21.55617 | -70.35296 | 36089 ft | 491 kts | 168° |
| 2026-05-08 03:54 | 21.50050 | -70.34084 | 36086 ft | 491 kts | 168° |
| 2026-05-08 03:54 | 21.43359 | -70.32628 | 36083 ft | 491 kts | 168° |
| 2026-05-08 03:55 | 21.36679 | -70.31177 | 36084 ft | 491 kts | 168° |
| 2026-05-08 03:55 | 21.29975 | -70.29721 | 36086 ft | 491 kts | 168° |
| 2026-05-08 03:56 | 21.23286 | -70.28270 | 36087 ft | 491 kts | 168° |
| 2026-05-08 03:56 | 21.16587 | -70.26819 | 36079 ft | 491 kts | 168° |
| 2026-05-08 03:57 | 21.09943 | -70.25380 | 36081 ft | 491 kts | 168° |
| 2026-05-08 03:57 | 21.03225 | -70.23927 | 36087 ft | 491 kts | 168° |
| 2026-05-08 03:58 | 20.96504 | -70.22475 | 36085 ft | 491 kts | 168° |
| 2026-05-08 03:58 | 20.89794 | -70.21026 | 36078 ft | 491 kts | 168° |
| 2026-05-08 03:59 | 20.83134 | -70.19589 | 36082 ft | 492 kts | 168° |
| 2026-05-08 03:59 | 20.76420 | -70.18142 | 36080 ft | 492 kts | 168° |
| 2026-05-08 04:00 | 20.69705 | -70.16696 | 36078 ft | 492 kts | 168° |
| 2026-05-08 04:00 | 20.62977 | -70.15250 | 35789 ft | 491 kts | 168° |
| 2026-05-08 04:00 | 20.59634 | -70.14531 | 35534 ft | 487 kts | 168° |
| 2026-05-08 04:01 | 20.56329 | -70.13821 | 35286 ft | 482 kts | 168° |
| 2026-05-08 04:01 | 20.53091 | -70.13125 | 35038 ft | 479 kts | 168° |
| 2026-05-08 04:01 | 20.49852 | -70.12430 | 34659 ft | 473 kts | 168° |
| 2026-05-08 04:01 | 20.46610 | -70.11735 | 33990 ft | 475 kts | 169° |
| 2026-05-08 04:02 | 20.43362 | -70.11036 | 33295 ft | 476 kts | 168° |
| 2026-05-08 04:02 | 20.40127 | -70.10342 | 32783 ft | 471 kts | 168° |
| 2026-05-08 04:02 | 20.36931 | -70.09657 | 32351 ft | 466 kts | 168° |
| 2026-05-08 04:02 | 20.33758 | -70.08977 | 31847 ft | 463 kts | 168° |
| 2026-05-08 04:03 | 20.30615 | -70.08304 | 31329 ft | 460 kts | 168° |
| 2026-05-08 04:03 | 20.24371 | -70.06967 | 30322 ft | 454 kts | 167° |
| 2026-05-08 04:03 | 20.21278 | -70.06306 | 29744 ft | 452 kts | 167° |
| 2026-05-08 04:04 | 20.18200 | -70.05650 | 29189 ft | 449 kts | 167° |
| 2026-05-08 04:04 | 20.15177 | -70.05029 | 28587 ft | 447 kts | 167° |
| 2026-05-08 04:04 | 20.12147 | -70.04407 | 28171 ft | 441 kts | 167° |
| 2026-05-08 04:04 | 20.09144 | -70.03789 | 27703 ft | 437 kts | 167° |
| 2026-05-08 04:05 | 20.06178 | -70.03178 | 27218 ft | 433 kts | 167° |
| 2026-05-08 04:05 | 20.03222 | -70.02570 | 26734 ft | 430 kts | 167° |
| 2026-05-08 04:05 | 20.00295 | -70.01968 | 26255 ft | 427 kts | 167° |
| 2026-05-08 04:05 | 19.97381 | -70.01369 | 25773 ft | 425 kts | 167° |
| 2026-05-08 04:06 | 19.94483 | -70.00773 | 25293 ft | 422 kts | 167° |
| 2026-05-08 04:06 | 19.91607 | -70.00182 | 24823 ft | 420 kts | 167° |
| 2026-05-08 04:06 | 19.88744 | -69.99594 | 24348 ft | 418 kts | 167° |
| 2026-05-08 04:06 | 19.85924 | -69.99015 | 23892 ft | 416 kts | 167° |
| 2026-05-08 04:07 | 19.83079 | -69.98431 | 23376 ft | 415 kts | 167° |
| 2026-05-08 04:07 | 19.80249 | -69.97851 | 22851 ft | 412 kts | 167° |
| 2026-05-08 04:07 | 19.77444 | -69.97275 | 22379 ft | 409 kts | 168° |
| 2026-05-08 04:07 | 19.74668 | -69.96707 | 21924 ft | 405 kts | 168° |
| 2026-05-08 04:08 | 19.71904 | -69.96140 | 21471 ft | 402 kts | 168° |
| 2026-05-08 04:08 | 19.69174 | -69.95580 | 21018 ft | 398 kts | 168° |
| 2026-05-08 04:08 | 19.66463 | -69.95025 | 20568 ft | 396 kts | 168° |
| 2026-05-08 04:08 | 19.63765 | -69.94473 | 20128 ft | 393 kts | 168° |
| 2026-05-08 04:09 | 19.61074 | -69.93922 | 19673 ft | 391 kts | 168° |
| 2026-05-08 04:09 | 19.58401 | -69.93375 | 19225 ft | 389 kts | 168° |
| 2026-05-08 04:09 | 19.55747 | -69.92832 | 18783 ft | 387 kts | 168° |
| 2026-05-08 04:09 | 19.53146 | -69.92300 | 18342 ft | 385 kts | 168° |
| 2026-05-08 04:10 | 19.50518 | -69.91763 | 17853 ft | 383 kts | 168° |
| 2026-05-08 04:10 | 19.47915 | -69.91231 | 17369 ft | 380 kts | 168° |
| 2026-05-08 04:10 | 19.45322 | -69.90702 | 16933 ft | 377 kts | 168° |
| 2026-05-08 04:10 | 19.42763 | -69.90179 | 16498 ft | 374 kts | 168° |
| 2026-05-08 04:11 | 19.40211 | -69.89658 | 16094 ft | 370 kts | 169° |
| 2026-05-08 04:11 | 19.37693 | -69.89144 | 15617 ft | 368 kts | 169° |
| 2026-05-08 04:11 | 19.35174 | -69.88630 | 15150 ft | 367 kts | 169° |
| 2026-05-08 04:11 | 19.32675 | -69.88121 | 14693 ft | 365 kts | 169° |
| 2026-05-08 04:12 | 19.30199 | -69.87616 | 14253 ft | 364 kts | 169° |
| 2026-05-08 04:12 | 19.27708 | -69.87108 | 13804 ft | 362 kts | 169° |
| 2026-05-08 04:12 | 19.25243 | -69.86606 | 13321 ft | 359 kts | 169° |
| 2026-05-08 04:12 | 19.22789 | -69.86106 | 12875 ft | 356 kts | 169° |
| 2026-05-08 04:13 | 19.20362 | -69.85611 | 12436 ft | 353 kts | 169° |
| 2026-05-08 04:13 | 19.17984 | -69.85127 | 12017 ft | 350 kts | 169° |
| 2026-05-08 04:13 | 19.15607 | -69.84643 | 11596 ft | 347 kts | 168° |
| 2026-05-08 04:13 | 19.13241 | -69.84162 | 11170 ft | 344 kts | 168° |
| 2026-05-08 04:14 | 19.10901 | -69.83686 | 10760 ft | 342 kts | 168° |
| 2026-05-08 04:14 | 19.08575 | -69.83213 | 10421 ft | 336 kts | 168° |
| 2026-05-08 04:14 | 19.06314 | -69.82753 | 10252 ft | 325 kts | 168° |
| 2026-05-08 04:14 | 19.04125 | -69.82308 | 10068 ft | 316 kts | 168° |
| 2026-05-08 04:15 | 19.01976 | -69.81872 | 9652 ft | 314 kts | 168° |
| 2026-05-08 04:15 | 19.00836 | -69.81641 | 9427 ft | 313 kts | 168° |
| 2026-05-08 04:15 | 18.98692 | -69.81205 | 9020 ft | 311 kts | 168° |
| 2026-05-08 04:15 | 18.96598 | -69.80780 | 8636 ft | 309 kts | 168° |
| 2026-05-08 04:16 | 18.94502 | -69.80355 | 8255 ft | 306 kts | 168° |
| 2026-05-08 04:16 | 18.92414 | -69.79931 | 7876 ft | 304 kts | 168° |
| 2026-05-08 04:16 | 18.90339 | -69.79510 | 7508 ft | 301 kts | 168° |
| 2026-05-08 04:16 | 18.88866 | -69.79211 | 7238 ft | 300 kts | 168° |
| 2026-05-08 04:17 | 18.88153 | -69.79066 | 7111 ft | 300 kts | 168° |
| 2026-05-08 04:17 | 18.86705 | -69.78773 | 6851 ft | 298 kts | 168° |
| 2026-05-08 04:17 | 18.84673 | -69.78361 | 6487 ft | 297 kts | 168° |
| 2026-05-08 04:17 | 18.82673 | -69.77955 | 6096 ft | 295 kts | 168° |
| 2026-05-08 04:18 | 18.80636 | -69.77542 | 5720 ft | 293 kts | 168° |
| 2026-05-08 04:18 | 18.78684 | -69.77147 | 5356 ft | 290 kts | 168° |
| 2026-05-08 04:18 | 18.76693 | -69.76743 | 4995 ft | 288 kts | 168° |
| 2026-05-08 04:18 | 18.74737 | -69.76347 | 4632 ft | 283 kts | 168° |
| 2026-05-08 04:19 | 18.72822 | -69.75960 | 4279 ft | 276 kts | 168° |
| 2026-05-08 04:19 | 18.70965 | -69.75584 | 4046 ft | 265 kts | 168° |
| 2026-05-08 04:19 | 18.69199 | -69.75227 | 3893 ft | 252 kts | 168° |
| 2026-05-08 04:19 | 18.67520 | -69.74887 | 3740 ft | 240 kts | 167° |
| 2026-05-08 04:20 | 18.65912 | -69.74562 | 3530 ft | 231 kts | 167° |
| 2026-05-08 04:20 | 18.64362 | -69.74249 | 3326 ft | 223 kts | 167° |
| 2026-05-08 04:20 | 18.62853 | -69.73943 | 3115 ft | 221 kts | 167° |
| 2026-05-08 04:20 | 18.61357 | -69.73641 | 2924 ft | 214 kts | 167° |
| 2026-05-08 04:21 | 18.59962 | -69.73336 | 2960 ft | 197 kts | 162° |
| 2026-05-08 04:21 | 18.58710 | -69.72885 | 2924 ft | 189 kts | 158° |
| 2026-05-08 04:21 | 18.57477 | -69.72419 | 2884 ft | 187 kts | 159° |
| 2026-05-08 04:21 | 18.56279 | -69.71975 | 2678 ft | 174 kts | 159° |
| 2026-05-08 04:22 | 18.55177 | -69.71570 | 2446 ft | 166 kts | 159° |
| 2026-05-08 04:22 | 18.54093 | -69.71175 | 2199 ft | 163 kts | 159° |
| 2026-05-08 04:22 | 18.53048 | -69.70795 | 1960 ft | 155 kts | 158° |
| 2026-05-08 04:22 | 18.52043 | -69.70429 | 1744 ft | 151 kts | 158° |
| 2026-05-08 04:23 | 18.51054 | -69.70060 | 1677 ft | 150 kts | 157° |
| 2026-05-08 04:23 | 18.50047 | -69.69678 | 1453 ft | 157 kts | 157° |
| 2026-05-08 04:23 | 18.49028 | -69.69272 | 1227 ft | 155 kts | 155° |
| 2026-05-08 04:23 | 18.48049 | -69.68922 | 967 ft | 143 kts | 160° |
| 2026-05-08 04:24 | 18.47128 | -69.68602 | 722 ft | 141 kts | 159° |
| 2026-05-08 04:24 | 18.46179 | -69.68278 | 521 ft | 144 kts | 158° |
| 2026-05-08 04:24 | 18.45227 | -69.67932 | 335 ft | 146 kts | 156° |
| 2026-05-08 04:24 | 18.44270 | -69.67563 | 138 ft | 144 kts | 158° |
| 2026-05-08 04:25 | 18.43389 | -69.67234 | 73 ft | 123 kts | 157° |
| 2026-05-08 04:25 | 18.42953 | -69.67080 | 119 ft | 144 kts | 159° |
| 2026-05-08 04:25 | 18.42292 | -69.66854 | 367 ft | 163 kts | 158° |
| 2026-05-08 04:25 | 18.41800 | -69.66679 | 560 ft | 176 kts | 159° |
| 2026-05-08 04:26 | 18.40750 | -69.66302 | 1034 ft | 193 kts | 159° |
| 2026-05-08 04:26 | 18.39433 | -69.65810 | 1572 ft | 205 kts | 158° |
| 2026-05-08 04:26 | 18.38097 | -69.65312 | 2136 ft | 203 kts | 158° |
| 2026-05-08 04:26 | 18.36872 | -69.64574 | 2617 ft | 203 kts | 131° |
| 2026-05-08 04:27 | 18.36340 | -69.63237 | 2841 ft | 203 kts | 91° |
| 2026-05-08 04:27 | 18.36750 | -69.61829 | 2960 ft | 206 kts | 55° |
| 2026-05-08 04:27 | 18.37908 | -69.60961 | 2985 ft | 210 kts | 17° |
| 2026-05-08 04:27 | 18.38576 | -69.60874 | 2995 ft | 213 kts | 359° |
| 2026-05-08 04:28 | 18.39369 | -69.60987 | 3026 ft | 216 kts | 351° |
| 2026-05-08 04:28 | 18.40850 | -69.61266 | 3018 ft | 216 kts | 352° |
| 2026-05-08 04:28 | 18.42338 | -69.61528 | 3008 ft | 216 kts | 353° |
| 2026-05-08 04:28 | 18.43807 | -69.61782 | 3006 ft | 216 kts | 353° |
| 2026-05-08 04:29 | 18.45295 | -69.62037 | 3009 ft | 217 kts | 353° |
| 2026-05-08 04:29 | 18.46784 | -69.62290 | 3012 ft | 217 kts | 353° |
| 2026-05-08 04:29 | 18.48277 | -69.62541 | 3000 ft | 216 kts | 353° |
| 2026-05-08 04:29 | 18.49766 | -69.62792 | 3006 ft | 216 kts | 353° |
| 2026-05-08 04:30 | 18.51248 | -69.63041 | 3009 ft | 216 kts | 353° |
| 2026-05-08 04:30 | 18.52738 | -69.63292 | 2998 ft | 217 kts | 353° |
| 2026-05-08 04:30 | 18.54227 | -69.63542 | 3001 ft | 217 kts | 352° |
| 2026-05-08 04:30 | 18.55723 | -69.63792 | 2986 ft | 217 kts | 353° |
| 2026-05-08 04:31 | 18.57211 | -69.64042 | 3000 ft | 217 kts | 353° |
| 2026-05-08 04:31 | 18.58702 | -69.64292 | 2997 ft | 217 kts | 353° |
| 2026-05-08 04:31 | 18.60141 | -69.64685 | 2965 ft | 218 kts | 331° |
| 2026-05-08 04:31 | 18.61153 | -69.65800 | 2977 ft | 204 kts | 296° |
| 2026-05-08 04:32 | 18.61528 | -69.67209 | 3004 ft | 199 kts | 270° |
| 2026-05-08 04:32 | 18.61316 | -69.68630 | 2998 ft | 196 kts | 247° |
| 2026-05-08 04:32 | 18.60610 | -69.69840 | 2987 ft | 194 kts | 225° |
| 2026-05-08 04:32 | 18.59586 | -69.70703 | 2812 ft | 184 kts | 210° |
| 2026-05-08 04:33 | 18.58510 | -69.71380 | 2592 ft | 175 kts | 207° |
| 2026-05-08 04:33 | 18.57382 | -69.71710 | 2298 ft | 166 kts | 175° |
| 2026-05-08 04:33 | 18.56271 | -69.71523 | 2084 ft | 162 kts | 166° |
| 2026-05-08 04:33 | 18.55165 | -69.71251 | 1900 ft | 164 kts | 164° |
| 2026-05-08 04:34 | 18.54075 | -69.70949 | 1735 ft | 163 kts | 162° |
| 2026-05-08 04:34 | 18.52983 | -69.70616 | 1682 ft | 163 kts | 161° |
| 2026-05-08 04:34 | 18.51896 | -69.70265 | 1684 ft | 163 kts | 160° |
| 2026-05-08 04:34 | 18.50830 | -69.69902 | 1644 ft | 157 kts | 159° |
| 2026-05-08 04:35 | 18.49812 | -69.69566 | 1492 ft | 148 kts | 161° |
| 2026-05-08 04:35 | 18.48848 | -69.69245 | 1170 ft | 147 kts | 158° |
| 2026-05-08 04:35 | 18.47880 | -69.68905 | 862 ft | 148 kts | 159° |
| 2026-05-08 04:35 | 18.46915 | -69.68538 | 708 ft | 148 kts | 157° |
| 2026-05-08 04:36 | 18.45934 | -69.68189 | 505 ft | 149 kts | 158° |
| 2026-05-08 04:36 | 18.44949 | -69.67821 | 265 ft | 151 kts | 158° |
| 2026-05-08 04:36 | 18.43964 | -69.67455 | 86 ft | 144 kts | 158° |
| 2026-05-08 04:36 | 18.43106 | -69.67142 | 66 ft | 114 kts | 160° |
| 2026-05-08 04:37 | 18.42494 | -69.66914 | 70 ft | 76 kts | 161° |
| 2026-05-08 04:37 | 18.42042 | -69.66749 | 70 ft | 59 kts | 160° |
| 2026-05-08 04:37 | 18.41733 | -69.66635 | 72 ft | 28 kts | 161° |
| 2026-05-08 04:37 | 18.41656 | -69.66564 | 66 ft | 12 kts | 133° |
| 2026-05-08 04:38 | 18.41614 | -69.66580 | 66 ft | 7 kts | 279° |
| 2026-05-08 04:38 | 18.41633 | -69.66599 | 67 ft | 4 kts | 337° |
| 2026-05-08 04:38 | 18.41670 | -69.66614 | 68 ft | 8 kts | 341° |
| 2026-05-08 04:38 | 18.41737 | -69.66638 | 72 ft | 12 kts | 341° |
| 2026-05-08 04:39 | 18.41820 | -69.66668 | 72 ft | 14 kts | 341° |
| 2026-05-08 04:39 | 18.41919 | -69.66704 | 64 ft | 16 kts | 340° |
| 2026-05-08 04:39 | 18.42037 | -69.66747 | 70 ft | 19 kts | 341° |
| 2026-05-08 04:39 | 18.42168 | -69.66794 | 66 ft | 21 kts | 341° |
| 2026-05-08 04:40 | 18.42313 | -69.66848 | 69 ft | 23 kts | 341° |
| 2026-05-08 04:40 | 18.42471 | -69.66904 | 69 ft | 25 kts | 342° |
| 2026-05-08 04:40 | 18.42634 | -69.66966 | 69 ft | 25 kts | 340° |
| 2026-05-08 04:40 | 18.42794 | -69.67025 | 63 ft | 24 kts | 341° |
| 2026-05-08 04:41 | 18.42917 | -69.67076 | 68 ft | 16 kts | 323° |
| 2026-05-08 04:41 | 18.42954 | -69.67177 | 67 ft | 15 kts | 276° |
| 2026-05-08 04:41 | 18.42961 | -69.67252 | 62 ft | 15 kts | 274° |
| 2026-05-08 04:41 | 18.42943 | -69.67337 | 63 ft | 8 kts | 218° |
| 2026-05-08 04:42 | 18.42907 | -69.67342 | 68 ft | 2 kts | 173° |
| 2026-05-08 04:42 | 18.42858 | -69.67343 | 66 ft | 12 kts | 196° |
| 2026-05-08 04:42 | 18.42820 | -69.67385 | 63 ft | 11 kts | 238° |
| 2026-05-08 04:42 | 18.42797 | -69.67436 | 65 ft | 4 kts | 256° |
| 2026-05-08 04:43 | 18.42793 | -69.67466 | 71 ft | 5 kts | 274° |
| 2026-05-08 04:43 | 18.42812 | -69.67488 | 69 ft | 4 kts | 0° |
| 2026-05-08 04:43 | 18.42839 | -69.67483 | 66 ft | 1 kts | 10° |
| 2026-05-08 04:43 | 18.42841 | -69.67483 | 66 ft | 0 kts | 10° |